Center, South Dakota
Current Conditions -  °F | °C
As of 11:15 PM on Sunday 19 Oct 2014 (Local Time) from KMDS Reporting Station
Clear Clear  
Wind Chill: 50°   Ceiling: Unl
Heat Index: 50°   Visibility: 10mi
Dew Point: 37°   Wind: 8mph
Humidity: 62%   Direction: 350°N
Pressure: 29.98"   Gusts: NA
Location:  43.7599°N, 97.3683°W
Report Text: KMDS 200415Z AUTO 35007KT 10SM CLR 10/03 A2998 RMK AO2
Loading
Personal Weather Stations






























Interactive Weather Map
Tropical Storm Tracking
New forecast layout! Learn more

10-Day Weather Forecast

Advertisements
Track Severe Weather on mobile